sensor_id;sensor_type;location;lat;lon;timestamp;pressure;altitude;pressure_sealevel;temperature;humidity
51928;BME280;37953;52.806;18.270;2023-05-02T00:01:41;100340.22;;;13.54;73.28
51928;BME280;37953;52.806;18.270;2023-05-02T00:04:07;100340.22;;;13.54;73.46
51928;BME280;37953;52.806;18.270;2023-05-02T00:06:33;100335.00;;;13.54;73.55
51928;BME280;37953;52.806;18.270;2023-05-02T00:09:03;100339.38;;;13.54;73.40
51928;BME280;37953;52.806;18.270;2023-05-02T00:11:28;100339.38;;;13.54;73.46
51928;BME280;37953;52.806;18.270;2023-05-02T00:13:55;100330.69;;;13.53;73.29
51928;BME280;37953;52.806;18.270;2023-05-02T00:16:21;100317.66;;;13.50;73.82
51928;BME280;37953;52.806;18.270;2023-05-02T00:18:47;100322.91;;;13.49;73.98
51928;BME280;37953;52.806;18.270;2023-05-02T00:21:13;100326.38;;;13.46;73.86
51928;BME280;37953;52.806;18.270;2023-05-02T00:23:39;100323.81;;;13.43;74.34
51928;BME280;37953;52.806;18.270;2023-05-02T00:26:08;100316.84;;;13.43;74.93
51928;BME280;37953;52.806;18.270;2023-05-02T00:28:35;100319.50;;;13.42;75.52
51928;BME280;37953;52.806;18.270;2023-05-02T00:31:01;100309.94;;;13.39;75.45
51928;BME280;37953;52.806;18.270;2023-05-02T00:33:27;100306.47;;;13.40;74.77
51928;BME280;37953;52.806;18.270;2023-05-02T00:35:53;100303.00;;;13.40;75.12
51928;BME280;37953;52.806;18.270;2023-05-02T00:38:19;100309.94;;;13.39;75.37
51928;BME280;37953;52.806;18.270;2023-05-02T00:40:47;100303.00;;;13.38;75.84
51928;BME280;37953;52.806;18.270;2023-05-02T00:43:14;100296.91;;;13.39;75.55
51928;BME280;37953;52.806;18.270;2023-05-02T00:45:45;100296.91;;;13.39;75.93
51928;BME280;37953;52.806;18.270;2023-05-02T00:48:12;100293.44;;;13.39;76.35
51928;BME280;37953;52.806;18.270;2023-05-02T00:50:41;100293.47;;;13.36;76.28
51928;BME280;37953;52.806;18.270;2023-05-02T00:53:08;100294.34;;;13.35;76.37
51928;BME280;37953;52.806;18.270;2023-05-02T00:55:35;100293.50;;;13.34;76.60
51928;BME280;37953;52.806;18.270;2023-05-02T00:58:06;100289.13;;;13.33;76.66
51928;BME280;37953;52.806;18.270;2023-05-02T01:12:00;100288.13;;;13.45;77.58
51928;BME280;37953;52.806;18.270;2023-05-02T01:14:35;100291.72;;;13.36;77.63
51928;BME280;37953;52.806;18.270;2023-05-02T01:17:10;100284.81;;;13.32;78.26
51928;BME280;37953;52.806;18.270;2023-05-02T01:19:42;100283.97;;;13.29;79.37
51928;BME280;37953;52.806;18.270;2023-05-02T01:22:10;100284.84;;;13.26;79.50
51928;BME280;37953;52.806;18.270;2023-05-02T01:30:18;100277.91;;;13.25;80.31
51928;BME280;37953;52.806;18.270;2023-05-02T01:32:56;100282.25;;;13.24;80.63
51928;BME280;37953;52.806;18.270;2023-05-02T01:35:23;100275.34;;;13.20;81.08
51928;BME280;37953;52.806;18.270;2023-05-02T01:37:56;100275.34;;;13.20;81.57
51928;BME280;37953;52.806;18.270;2023-05-02T01:40:24;100279.75;;;13.17;81.17
51928;BME280;37953;52.806;18.270;2023-05-02T01:42:52;100273.63;;;13.16;81.36
51928;BME280;37953;52.806;18.270;2023-05-02T01:45:20;100271.06;;;13.15;82.54
51928;BME280;37953;52.806;18.270;2023-05-02T01:47:46;100267.56;;;13.14;82.24
51928;BME280;37953;52.806;18.270;2023-05-02T01:50:17;100273.69;;;13.13;83.09
51928;BME280;37953;52.806;18.270;2023-05-02T01:52:46;100267.63;;;13.13;82.85
51928;BME280;37953;52.806;18.270;2023-05-02T01:55:15;100268.47;;;13.13;83.37
51928;BME280;37953;52.806;18.270;2023-05-02T01:57:44;100261.56;;;13.11;83.96
51928;BME280;37953;52.806;18.270;2023-05-02T02:00:22;100259.78;;;13.13;84.07
51928;BME280;37953;52.806;18.270;2023-05-02T02:02:50;100252.03;;;13.05;83.59
51928;BME280;37953;52.806;18.270;2023-05-02T02:05:21;100257.19;;;13.13;84.37
51928;BME280;37953;52.806;18.270;2023-05-02T02:07:47;100256.31;;;13.12;85.32
51928;BME280;37953;52.806;18.270;2023-05-02T02:10:13;100261.53;;;13.12;85.51
51928;BME280;37953;52.806;18.270;2023-05-02T02:12:51;100251.94;;;13.14;86.06
51928;BME280;37953;52.806;18.270;2023-05-02T02:15:37;100250.22;;;13.13;85.30
51928;BME280;37953;52.806;18.270;2023-05-02T02:18:12;100248.50;;;13.12;84.94
51928;BME280;37953;52.806;18.270;2023-05-02T02:20:43;100249.38;;;13.11;86.25
51928;BME280;37953;52.806;18.270;2023-05-02T02:23:16;100248.50;;;13.12;86.10
51928;BME280;37953;52.806;18.270;2023-05-02T02:25:45;100253.72;;;13.11;85.92
51928;BME280;37953;52.806;18.270;2023-05-02T02:28:11;100245.91;;;13.11;86.41
51928;BME280;37953;52.806;18.270;2023-05-02T02:30:37;100248.50;;;13.12;87.39
51928;BME280;37953;52.806;18.270;2023-05-02T02:33:03;100244.16;;;13.10;86.48
51928;BME280;37953;52.806;18.270;2023-05-02T02:35:34;100244.16;;;13.10;86.61
51928;BME280;37953;52.806;18.270;2023-05-02T02:41:17;100248.47;;;13.14;87.42
51928;BME280;37953;52.806;18.270;2023-05-02T02:47:31;100244.94;;;13.16;87.96
51928;BME280;37953;52.806;18.270;2023-05-02T02:52:54;100246.75;;;13.13;87.24
51928;BME280;37953;52.806;18.270;2023-05-02T02:56:01;100248.47;;;13.15;87.56
51928;BME280;37953;52.806;18.270;2023-05-02T02:58:45;100249.31;;;13.16;87.79
51928;BME280;37953;52.806;18.270;2023-05-02T03:01:20;100245.00;;;13.15;87.89
51928;BME280;37953;52.806;18.270;2023-05-02T03:03:48;100245.00;;;13.13;87.84
51928;BME280;37953;52.806;18.270;2023-05-02T03:06:19;100249.31;;;13.14;88.23
51928;BME280;37953;52.806;18.270;2023-05-02T03:08:45;100249.34;;;13.13;87.79
51928;BME280;37953;52.806;18.270;2023-05-02T03:11:11;100249.31;;;13.16;87.42
51928;BME280;37953;52.806;18.270;2023-05-02T03:13:37;100253.66;;;13.15;87.50
51928;BME280;37953;52.806;18.270;2023-05-02T03:16:29;100251.84;;;13.20;86.71
51928;BME280;37953;52.806;18.270;2023-05-02T03:18:57;100244.94;;;13.19;87.13
51928;BME280;37953;52.806;18.270;2023-05-02T03:21:23;100252.75;;;13.19;87.94
51928;BME280;37953;52.806;18.270;2023-05-02T03:23:49;100246.66;;;13.20;86.81
51928;BME280;37953;52.806;18.270;2023-05-02T03:26:16;100244.03;;;13.20;87.29
51928;BME280;37953;52.806;18.270;2023-05-02T03:28:42;100257.06;;;13.22;87.26
51928;BME280;37953;52.806;18.270;2023-05-02T03:31:11;100256.19;;;13.23;86.76
51928;BME280;37953;52.806;18.270;2023-05-02T03:33:39;100258.75;;;13.26;86.15
51928;BME280;37953;52.806;18.270;2023-05-02T03:36:07;100257.00;;;13.27;86.47
51928;BME280;37953;52.806;18.270;2023-05-02T03:38:34;100266.59;;;13.28;86.20
51928;BME280;37953;52.806;18.270;2023-05-02T03:40:59;100266.56;;;13.29;86.13
51928;BME280;37953;52.806;18.270;2023-05-02T03:43:26;100270.03;;;13.31;85.77
51928;BME280;37953;52.806;18.270;2023-05-02T03:45:51;100265.69;;;13.32;86.04
51928;BME280;37953;52.806;18.270;2023-05-02T03:48:18;100274.38;;;13.32;86.32
51928;BME280;37953;52.806;18.270;2023-05-02T03:50:44;100267.41;;;13.33;86.46
51928;BME280;37953;52.806;18.270;2023-05-02T03:53:10;100268.31;;;13.32;87.23
51928;BME280;37953;52.806;18.270;2023-05-02T03:55:39;100277.84;;;13.34;87.74
51928;BME280;37953;52.806;18.270;2023-05-02T03:58:06;100278.69;;;13.35;87.56
51928;BME280;37953;52.806;18.270;2023-05-02T04:00:32;100279.53;;;13.35;87.78
51928;BME280;37953;52.806;18.270;2023-05-02T04:03:00;100281.31;;;13.35;87.75
51928;BME280;37953;52.806;18.270;2023-05-02T04:05:27;100277.81;;;13.36;88.36
51928;BME280;37953;52.806;18.270;2023-05-02T04:08:00;100284.75;;;13.37;89.03
51928;BME280;37953;52.806;18.270;2023-05-02T04:10:25;100282.16;;;13.35;89.99
51928;BME280;37953;52.806;18.270;2023-05-02T04:12:51;100296.09;;;13.34;90.75
51928;BME280;37953;52.806;18.270;2023-05-02T04:15:17;100296.09;;;13.34;91.08
51928;BME280;37953;52.806;18.270;2023-05-02T04:17:43;100306.53;;;13.34;91.62
51928;BME280;37953;52.806;18.270;2023-05-02T04:20:09;100309.16;;;13.34;91.98
51928;BME280;37953;52.806;18.270;2023-05-02T04:22:36;100309.16;;;13.34;91.70
51928;BME280;37953;52.806;18.270;2023-05-02T04:25:05;100310.84;;;13.35;91.42
51928;BME280;37953;52.806;18.270;2023-05-02T04:27:35;100310.84;;;13.37;91.12
51928;BME280;37953;52.806;18.270;2023-05-02T04:30:01;100315.22;;;13.36;91.62
51928;BME280;37953;52.806;18.270;2023-05-02T04:32:27;100310.00;;;13.36;91.80
51928;BME280;37953;52.806;18.270;2023-05-02T04:34:53;100314.31;;;13.37;92.68
51928;BME280;37953;52.806;18.270;2023-05-02T04:37:19;100313.47;;;13.37;92.61
51928;BME280;37953;52.806;18.270;2023-05-02T04:39:45;100311.69;;;13.37;92.61
51928;BME280;37953;52.806;18.270;2023-05-02T04:42:11;100319.53;;;13.37;92.62
51928;BME280;37953;52.806;18.270;2023-05-02T04:44:37;100316.91;;;13.37;94.04
51928;BME280;37953;52.806;18.270;2023-05-02T04:47:03;100320.41;;;13.38;93.77
51928;BME280;37953;52.806;18.270;2023-05-02T04:49:30;100316.06;;;13.35;92.80
51928;BME280;37953;52.806;18.270;2023-05-02T04:51:56;100319.56;;;13.36;93.80
51928;BME280;37953;52.806;18.270;2023-05-02T04:54:28;100325.66;;;13.36;94.71
51928;BME280;37953;52.806;18.270;2023-05-02T04:56:55;100330.88;;;13.36;94.43
51928;BME280;37953;52.806;18.270;2023-05-02T04:59:21;100330.00;;;13.36;94.64
51928;BME280;37953;52.806;18.270;2023-05-02T05:01:47;100329.13;;;13.35;95.19
51928;BME280;37953;52.806;18.270;2023-05-02T05:04:13;100330.00;;;13.36;95.18
51928;BME280;37953;52.806;18.270;2023-05-02T05:06:39;100330.88;;;13.36;96.13
51928;BME280;37953;52.806;18.270;2023-05-02T05:09:05;100330.00;;;13.36;95.91
51928;BME280;37953;52.806;18.270;2023-05-02T05:11:31;100333.47;;;13.36;96.54
51928;BME280;37953;52.806;18.270;2023-05-02T05:13:57;100330.00;;;13.36;96.27
51928;BME280;37953;52.806;18.270;2023-05-02T05:16:24;100336.09;;;13.36;97.89
51928;BME280;37953;52.806;18.270;2023-05-02T05:18:49;100335.19;;;13.37;98.51
51928;BME280;37953;52.806;18.270;2023-05-02T05:21:16;100344.78;;;13.37;99.01
51928;BME280;37953;52.806;18.270;2023-05-02T05:23:41;100343.00;;;13.37;98.92
51928;BME280;37953;52.806;18.270;2023-05-02T05:26:19;100349.09;;;13.39;100.00
51928;BME280;37953;52.806;18.270;2023-05-02T05:28:45;100352.59;;;13.37;100.00
51928;BME280;37953;52.806;18.270;2023-05-02T05:31:13;100356.06;;;13.37;100.00
51928;BME280;37953;52.806;18.270;2023-05-02T05:33:45;100355.19;;;13.38;100.00
51928;BME280;37953;52.806;18.270;2023-05-02T05:36:12;100356.06;;;13.37;100.00
51928;BME280;37953;52.806;18.270;2023-05-02T05:38:39;100360.44;;;13.37;100.00
51928;BME280;37953;52.806;18.270;2023-05-02T05:41:06;100358.66;;;13.37;100.00
51928;BME280;37953;52.806;18.270;2023-05-02T05:43:35;100363.03;;;13.38;100.00
51928;BME280;37953;52.806;18.270;2023-05-02T05:46:02;100370.84;;;13.38;100.00
51928;BME280;37953;52.806;18.270;2023-05-02T05:48:28;100375.22;;;13.36;100.00
51928;BME280;37953;52.806;18.270;2023-05-02T05:50:54;100380.44;;;13.35;100.00
51928;BME280;37953;52.806;18.270;2023-05-02T05:53:20;100388.28;;;13.35;100.00
51928;BME280;37953;52.806;18.270;2023-05-02T05:55:46;100391.75;;;13.35;100.00
51928;BME280;37953;52.806;18.270;2023-05-02T05:58:12;100387.41;;;13.36;100.00
51928;BME280;37953;52.806;18.270;2023-05-02T06:00:39;100395.25;;;13.36;100.00
51928;BME280;37953;52.806;18.270;2023-05-02T06:03:05;100390.88;;;13.36;100.00
51928;BME280;37953;52.806;18.270;2023-05-02T06:05:34;100399.56;;;13.38;100.00
51928;BME280;37953;52.806;18.270;2023-05-02T06:08:00;100394.34;;;13.37;100.00
51928;BME280;37953;52.806;18.270;2023-05-02T06:10:26;100402.16;;;13.38;100.00
51928;BME280;37953;52.806;18.270;2023-05-02T06:12:52;100407.38;;;13.40;100.00
51928;BME280;37953;52.806;18.270;2023-05-02T06:15:18;100408.22;;;13.40;100.00
51928;BME280;37953;52.806;18.270;2023-05-02T06:17:44;100414.31;;;13.41;100.00
51928;BME280;37953;52.806;18.270;2023-05-02T06:20:11;100418.63;;;13.43;100.00
51928;BME280;37953;52.806;18.270;2023-05-02T06:22:36;100422.13;;;13.44;100.00
51928;BME280;37953;52.806;18.270;2023-05-02T06:25:04;100429.91;;;13.46;100.00
51928;BME280;37953;52.806;18.270;2023-05-02T06:27:37;100432.53;;;13.47;100.00
51928;BME280;37953;52.806;18.270;2023-05-02T06:30:03;100442.94;;;13.49;100.00
51928;BME280;37953;52.806;18.270;2023-05-02T06:32:30;100449.88;;;13.50;100.00
51928;BME280;37953;52.806;18.270;2023-05-02T06:34:56;100454.25;;;13.51;100.00
51928;BME280;37953;52.806;18.270;2023-05-02T06:37:22;100449.88;;;13.51;100.00
51928;BME280;37953;52.806;18.270;2023-05-02T06:39:49;100459.41;;;13.54;100.00
51928;BME280;37953;52.806;18.270;2023-05-02T06:42:15;100466.38;;;13.55;100.00
51928;BME280;37953;52.806;18.270;2023-05-02T06:44:41;100467.25;;;13.55;100.00
51928;BME280;37953;52.806;18.270;2023-05-02T06:47:07;100471.59;;;13.55;100.00
51928;BME280;37953;52.806;18.270;2023-05-02T06:49:33;100472.47;;;13.55;100.00
51928;BME280;37953;52.806;18.270;2023-05-02T06:51:59;100477.69;;;13.55;100.00
51928;BME280;37953;52.806;18.270;2023-05-02T06:54:25;100480.28;;;13.55;100.00
51928;BME280;37953;52.806;18.270;2023-05-02T06:56:51;100478.53;;;13.54;100.00
51928;BME280;37953;52.806;18.270;2023-05-02T06:59:17;100486.38;;;13.54;100.00
51928;BME280;37953;52.806;18.270;2023-05-02T07:01:43;100482.97;;;13.49;100.00
51928;BME280;37953;52.806;18.270;2023-05-02T07:04:09;100488.16;;;13.51;100.00
51928;BME280;37953;52.806;18.270;2023-05-02T07:06:35;100493.41;;;13.49;100.00
51928;BME280;37953;52.806;18.270;2023-05-02T07:09:02;100494.25;;;13.50;100.00
51928;BME280;37953;52.806;18.270;2023-05-02T07:11:28;100494.25;;;13.50;100.00
51928;BME280;37953;52.806;18.270;2023-05-02T07:13:54;100490.78;;;13.48;100.00
51928;BME280;37953;52.806;18.270;2023-05-02T07:16:20;100495.16;;;13.46;100.00
51928;BME280;37953;52.806;18.270;2023-05-02T07:18:46;100501.28;;;13.44;100.00
51928;BME280;37953;52.806;18.270;2023-05-02T07:21:12;100496.91;;;13.43;100.00
51928;BME280;37953;52.806;18.270;2023-05-02T07:23:38;100501.28;;;13.41;100.00
51928;BME280;37953;52.806;18.270;2023-05-02T07:26:04;100500.41;;;13.42;100.00
51928;BME280;37953;52.806;18.270;2023-05-02T07:28:31;100495.19;;;13.42;100.00
51928;BME280;37953;52.806;18.270;2023-05-02T07:31:09;100498.66;;;13.43;100.00
51928;BME280;37953;52.806;18.270;2023-05-02T07:33:36;100497.81;;;13.42;100.00
51928;BME280;37953;52.806;18.270;2023-05-02T07:36:02;100503.03;;;13.42;100.00
51928;BME280;37953;52.806;18.270;2023-05-02T07:38:28;100503.88;;;13.43;100.00
51928;BME280;37953;52.806;18.270;2023-05-02T07:40:57;100500.38;;;13.46;100.00
51928;BME280;37953;52.806;18.270;2023-05-02T07:43:23;100503.84;;;13.48;100.00
51928;BME280;37953;52.806;18.270;2023-05-02T07:45:49;100509.00;;;13.52;100.00
51928;BME280;37953;52.806;18.270;2023-05-02T07:48:15;100507.25;;;13.56;100.00
51928;BME280;37953;52.806;18.270;2023-05-02T07:50:41;100508.09;;;13.61;100.00
51928;BME280;37953;52.806;18.270;2023-05-02T07:53:07;100509.78;;;13.65;100.00
51928;BME280;37953;52.806;18.270;2023-05-02T07:55:33;100507.13;;;13.70;100.00
51928;BME280;37953;52.806;18.270;2023-05-02T07:57:59;100511.41;;;13.75;100.00
51928;BME280;37953;52.806;18.270;2023-05-02T08:00:26;100513.97;;;13.81;100.00
51928;BME280;37953;52.806;18.270;2023-05-02T08:02:52;100513.06;;;13.87;100.00
51928;BME280;37953;52.806;18.270;2023-05-02T08:05:18;100514.75;;;13.93;100.00
51928;BME280;37953;52.806;18.270;2023-05-02T08:07:44;100523.38;;;13.99;100.00
51928;BME280;37953;52.806;18.270;2023-05-02T08:10:10;100515.44;;;14.07;100.00
51928;BME280;37953;52.806;18.270;2023-05-02T08:12:40;100511.91;;;14.13;100.00
51928;BME280;37953;52.806;18.270;2023-05-02T08:15:07;100517.06;;;14.19;100.00
51928;BME280;37953;52.806;18.270;2023-05-02T08:17:35;100521.38;;;14.24;100.00
51928;BME280;37953;52.806;18.270;2023-05-02T08:20:00;100522.16;;;14.31;100.00
51928;BME280;37953;52.806;18.270;2023-05-02T08:22:27;100517.72;;;14.36;100.00
51928;BME280;37953;52.806;18.270;2023-05-02T08:24:53;100524.63;;;14.43;100.00
51928;BME280;37953;52.806;18.270;2023-05-02T08:27:19;100521.03;;;14.51;100.00
51928;BME280;37953;52.806;18.270;2023-05-02T08:29:45;100528.84;;;14.58;100.00
51928;BME280;37953;52.806;18.270;2023-05-02T08:32:11;100536.56;;;14.64;100.00
51928;BME280;37953;52.806;18.270;2023-05-02T08:34:37;100537.34;;;14.73;100.00
51928;BME280;37953;52.806;18.270;2023-05-02T08:37:09;100540.72;;;14.79;100.00
51928;BME280;37953;52.806;18.270;2023-05-02T08:39:36;100539.78;;;14.88;100.00
51928;BME280;37953;52.806;18.270;2023-05-02T08:42:06;100541.41;;;14.94;100.00
51928;BME280;37953;52.806;18.270;2023-05-02T08:44:32;100543.94;;;15.00;100.00
51928;BME280;37953;52.806;18.270;2023-05-02T08:47:02;100545.63;;;15.05;100.00
51928;BME280;37953;52.806;18.270;2023-05-02T08:49:30;100549.00;;;15.12;100.00
51928;BME280;37953;52.806;18.270;2023-05-02T08:51:58;100551.56;;;15.17;100.00
51928;BME280;37953;52.806;18.270;2023-05-02T08:54:25;100561.06;;;15.22;100.00
51928;BME280;37953;52.806;18.270;2023-05-02T08:56:53;100560.09;;;15.28;100.00
51928;BME280;37953;52.806;18.270;2023-05-02T08:59:29;100563.53;;;15.33;100.00
51928;BME280;37953;52.806;18.270;2023-05-02T09:02:00;100561.69;;;15.40;100.00
51928;BME280;37953;52.806;18.270;2023-05-02T09:04:31;100566.81;;;15.46;100.00
51928;BME280;37953;52.806;18.270;2023-05-02T09:06:57;100565.88;;;15.52;99.65
51928;BME280;37953;52.806;18.270;2023-05-02T09:09:24;100571.88;;;15.58;100.00
51928;BME280;37953;52.806;18.270;2023-05-02T09:11:50;100578.72;;;15.64;100.00
51928;BME280;37953;52.806;18.270;2023-05-02T09:14:17;100576.91;;;15.69;98.58
51928;BME280;37953;52.806;18.270;2023-05-02T09:16:43;100583.84;;;15.75;99.22
51928;BME280;37953;52.806;18.270;2023-05-02T09:19:10;100588.09;;;15.82;100.00
51928;BME280;37953;52.806;18.270;2023-05-02T09:21:38;100577.53;;;15.85;100.00
51928;BME280;37953;52.806;18.270;2023-05-02T09:24:25;100584.44;;;15.92;100.00
51928;BME280;37953;52.806;18.270;2023-05-02T09:27:00;100586.06;;;15.98;100.00
51928;BME280;37953;52.806;18.270;2023-05-02T09:29:28;100587.72;;;16.02;100.00
51928;BME280;37953;52.806;18.270;2023-05-02T09:32:01;100586.75;;;16.07;100.00
51928;BME280;37953;52.806;18.270;2023-05-02T09:34:28;100584.91;;;16.13;100.00
51928;BME280;37953;52.806;18.270;2023-05-02T09:36:55;100588.34;;;16.18;100.00
51928;BME280;37953;52.806;18.270;2023-05-02T09:39:24;100597.00;;;16.21;100.00
51928;BME280;37953;52.806;18.270;2023-05-02T09:41:51;100604.78;;;16.26;100.00
51928;BME280;37953;52.806;18.270;2023-05-02T09:44:19;100602.09;;;16.29;93.04
51928;BME280;37953;52.806;18.270;2023-05-02T09:46:53;100601.13;;;16.35;94.97
51928;BME280;37953;52.806;18.270;2023-05-02T09:52:13;100605.34;;;16.42;89.08
51928;BME280;37953;52.806;18.270;2023-05-02T09:54:40;100610.50;;;16.46;84.34
51928;BME280;37953;52.806;18.270;2023-05-02T09:57:06;100614.78;;;16.51;86.12
51928;BME280;37953;52.806;18.270;2023-05-02T09:59:32;100607.75;;;16.54;86.99
51928;BME280;37953;52.806;18.270;2023-05-02T10:02:03;100612.03;;;16.58;85.72
51928;BME280;37953;52.806;18.270;2023-05-02T10:04:30;100603.25;;;16.59;85.93
51928;BME280;37953;52.806;18.270;2023-05-02T10:06:57;100621.50;;;16.65;85.98
51928;BME280;37953;52.806;18.270;2023-05-02T10:09:25;100615.28;;;16.69;84.18
51928;BME280;37953;52.806;18.270;2023-05-02T10:11:53;100617.88;;;16.73;79.80
51928;BME280;37953;52.806;18.270;2023-05-02T10:14:22;100624.78;;;16.77;80.37
51928;BME280;37953;52.806;18.270;2023-05-02T10:16:58;100628.22;;;16.80;80.68
51928;BME280;37953;52.806;18.270;2023-05-02T10:19:37;100635.19;;;16.83;79.79
51928;BME280;37953;52.806;18.270;2023-05-02T10:22:04;100637.75;;;16.86;79.22
51928;BME280;37953;52.806;18.270;2023-05-02T10:24:31;100639.44;;;16.88;78.67
51928;BME280;37953;52.806;18.270;2023-05-02T10:26:58;100643.78;;;16.89;77.00
51928;BME280;37953;52.806;18.270;2023-05-02T10:29:28;100639.31;;;16.93;78.33
51928;BME280;37953;52.806;18.270;2023-05-02T10:31:55;100648.94;;;16.96;78.45
51928;BME280;37953;52.806;18.270;2023-05-02T10:34:22;100649.75;;;16.98;78.01
51928;BME280;37953;52.806;18.270;2023-05-02T10:36:48;100652.31;;;16.99;78.24
51928;BME280;37953;52.806;18.270;2023-05-02T10:39:14;100654.03;;;17.02;78.86
51928;BME280;37953;52.806;18.270;2023-05-02T10:41:42;100655.72;;;17.06;79.19
51928;BME280;37953;52.806;18.270;2023-05-02T10:44:08;100657.34;;;17.10;80.73
51928;BME280;37953;52.806;18.270;2023-05-02T10:46:37;100652.91;;;17.14;78.91
51928;BME280;37953;52.806;18.270;2023-05-02T10:49:15;100655.50;;;17.15;76.31
51928;BME280;37953;52.806;18.270;2023-05-02T10:51:42;100658.06;;;17.18;74.46
51928;BME280;37953;52.806;18.270;2023-05-02T10:54:21;100663.28;;;17.20;73.67
51928;BME280;37953;52.806;18.270;2023-05-02T10:57:06;100659.72;;;17.22;75.05
51928;BME280;37953;52.806;18.270;2023-05-02T11:02:04;100657.03;;;17.25;73.63
51928;BME280;37953;52.806;18.270;2023-05-02T11:05:09;100666.59;;;17.29;73.06
51928;BME280;37953;52.806;18.270;2023-05-02T11:07:36;100663.88;;;17.33;71.48
51928;BME280;37953;52.806;18.270;2023-05-02T11:17:59;100664.50;;;17.44;71.35
51928;BME280;37953;52.806;18.270;2023-05-02T11:20:29;100668.00;;;17.44;72.58
51928;BME280;37953;52.806;18.270;2023-05-02T11:25:43;100673.19;;;17.47;71.11
51928;BME280;37953;52.806;18.270;2023-05-02T11:28:43;100671.38;;;17.49;71.31
51928;BME280;37953;52.806;18.270;2023-05-02T11:34:16;100681.88;;;17.49;70.42
51928;BME280;37953;52.806;18.270;2023-05-02T11:36:43;100686.19;;;17.52;72.67
51928;BME280;37953;52.806;18.270;2023-05-02T11:39:19;100676.50;;;17.56;74.22
51928;BME280;37953;52.806;18.270;2023-05-02T11:41:46;100680.78;;;17.60;73.78
51928;BME280;37953;52.806;18.270;2023-05-02T11:44:15;100692.13;;;17.62;71.28
51928;BME280;37953;52.806;18.270;2023-05-02T11:46:41;100689.50;;;17.62;71.75
51928;BME280;37953;52.806;18.270;2023-05-02T11:49:07;100697.38;;;17.62;72.63
51928;BME280;37953;52.806;18.270;2023-05-02T11:51:34;100695.56;;;17.64;73.37
51928;BME280;37953;52.806;18.270;2023-05-02T11:54:00;100697.28;;;17.65;73.46
51928;BME280;37953;52.806;18.270;2023-05-02T11:56:26;100696.41;;;17.66;72.26
51928;BME280;37953;52.806;18.270;2023-05-02T11:59:00;100696.38;;;17.67;74.73
51928;BME280;37953;52.806;18.270;2023-05-02T12:01:26;100698.06;;;17.70;73.30
51928;BME280;37953;52.806;18.270;2023-05-02T12:04:06;100690.16;;;17.72;73.73
51928;BME280;37953;52.806;18.270;2023-05-02T12:06:33;100699.78;;;17.71;73.19
51928;BME280;37953;52.806;18.270;2023-05-02T12:09:12;100699.75;;;17.73;72.45
51928;BME280;37953;52.806;18.270;2023-05-02T12:11:38;100701.44;;;17.75;72.24
51928;BME280;37953;52.806;18.270;2023-05-02T12:14:05;100704.00;;;17.78;72.64
51928;BME280;37953;52.806;18.270;2023-05-02T12:16:31;100705.69;;;17.82;72.18
51928;BME280;37953;52.806;18.270;2023-05-02T12:18:58;100702.09;;;17.86;72.51
51928;BME280;37953;52.806;18.270;2023-05-02T12:21:28;100705.44;;;17.93;75.09
51928;BME280;37953;52.806;18.270;2023-05-02T12:23:55;100707.03;;;17.99;75.83
51928;BME280;37953;52.806;18.270;2023-05-02T12:26:24;100712.16;;;18.05;73.26
51928;BME280;37953;52.806;18.270;2023-05-02T12:28:54;100714.72;;;18.08;71.14
51928;BME280;37953;52.806;18.270;2023-05-02T12:31:21;100716.47;;;18.07;70.97
51928;BME280;37953;52.806;18.270;2023-05-02T12:33:57;100712.94;;;18.10;70.00
51928;BME280;37953;52.806;18.270;2023-05-02T12:36:24;100719.00;;;18.12;69.57
51928;BME280;37953;52.806;18.270;2023-05-02T12:38:57;100724.22;;;18.14;70.87
51928;BME280;37953;52.806;18.270;2023-05-02T12:41:50;100727.63;;;18.17;68.14
51928;BME280;37953;52.806;18.270;2023-05-02T12:44:36;100731.19;;;18.16;68.86
51928;BME280;37953;52.806;18.270;2023-05-02T12:47:06;100726.84;;;18.14;68.17
51928;BME280;37953;52.806;18.270;2023-05-02T12:49:54;100720.69;;;18.15;68.51
51928;BME280;37953;52.806;18.270;2023-05-02T12:52:47;100730.25;;;18.19;68.09
51928;BME280;37953;52.806;18.270;2023-05-02T12:55:21;100730.97;;;18.24;69.85
51928;BME280;37953;52.806;18.270;2023-05-02T12:57:59;100736.91;;;18.32;70.52
51928;BME280;37953;52.806;18.270;2023-05-02T13:00:25;100734.22;;;18.35;71.04
51928;BME280;37953;52.806;18.270;2023-05-02T13:02:51;100732.47;;;18.34;71.77
51928;BME280;37953;52.806;18.270;2023-05-02T13:05:18;100739.53;;;18.32;67.94
51928;BME280;37953;52.806;18.270;2023-05-02T13:07:45;100746.56;;;18.31;69.76
51928;BME280;37953;52.806;18.270;2023-05-02T13:10:11;100745.75;;;18.29;70.78
51928;BME280;37953;52.806;18.270;2023-05-02T13:12:38;100750.19;;;18.27;70.31
51928;BME280;37953;52.806;18.270;2023-05-02T13:15:11;100754.59;;;18.27;69.76
51928;BME280;37953;52.806;18.270;2023-05-02T13:17:37;100748.50;;;18.25;70.17
51928;BME280;37953;52.806;18.270;2023-05-02T13:20:03;100759.94;;;18.22;70.63
51928;BME280;37953;52.806;18.270;2023-05-02T13:22:29;100759.06;;;18.22;70.23
51928;BME280;37953;52.806;18.270;2023-05-02T13:24:56;100756.41;;;18.23;70.37
51928;BME280;37953;52.806;18.270;2023-05-02T13:27:22;100766.03;;;18.24;71.24
51928;BME280;37953;52.806;18.270;2023-05-02T13:29:49;100764.22;;;18.26;71.69